< < Back
Terminal Aerodrome Forecast


Current Version              Previous Versions:   1  2  3  4  5  6  7  8  9  

Terminal Aerodrome Forecast

190
FTUS42 KFFC 310523
TAFATL
TAF
KATL 310523Z 3106/0112 32005KT P6SM SKC
     FM311400 21005KT P6SM SCT040
     FM311700 25009KT P6SM VCSH BKN040 PROB30 3119/3123 -TSRA
      BKN025CB
     FM010200 26006KT P6SM SCT040 BKN150
     FM010900 29005KT P6SM SCT012=



Latest METAR

874
SAUS70 KWBC 310500 RRD
MTRATL
METAR KATL 310452Z 32005KT 10SM CLR 13/05 A3011 RMK AO2 SLP195 T01330050
402170100


USA.gov is the U.S. government's official web portal to all federal, state and local government web resources and services.